This is the latest recevied weather packets stored in our database for station/object YO4ISC-13. If no packets are shown the sender has not sent any weather packets the latest 10 day(s).
| Time | Temp. | Humidity | Pressure | Rain* | Wind** | Luminosity | Snow |
|---|---|---|---|---|---|---|---|
| 1777744802 | 6.11° C | 83% | 1023 hPa | - | - | - | - |
| 1777744202 | 6.11° C | 82% | 1023 hPa | - | - | - | - |
| 1777743602 | 6.67° C | 83% | 1023 hPa | - | - | - | - |
| 1777743002 | 6.67° C | 82% | 1023 hPa | - | - | - | - |
| 1777742401 | 7.22° C | 81% | 1023 hPa | - | - | - | - |
| 1777741802 | 7.22° C | 79% | 1023 hPa | - | - | - | - |
| 1777741201 | 7.78° C | 78% | 1023 hPa | - | - | - | - |
| 1777740602 | 8.33° C | 76% | 1023 hPa | - | - | - | - |
| 1777740002 | 8.33° C | 74% | 1023 hPa | - | - | - | - |
| 1777739402 | 8.89° C | 72% | 1023 hPa | - | - | - | - |
| 1777738802 | 9.44° C | 69% | 1023 hPa | - | - | - | - |
| 1777738201 | 10° C | 67% | 1023 hPa | - | - | - | - |
| 1777737602 | 10.56° C | 65% | 1023 hPa | - | - | - | - |
| 1777737002 | 10.56° C | 61% | 1023 hPa | - | - | - | - |
| 1777736401 | 10.56° C | 63% | 1023 hPa | - | - | - | - |
| 1777735802 | 11.11° C | 62% | 1023 hPa | - | - | - | - |
| 1777735201 | 11.11° C | 60% | 1023 hPa | - | - | - | - |
| 1777734602 | 10.56° C | 61% | 1023 hPa | - | - | - | - |
| 1777734001 | 11.11° C | 59% | 1023 hPa | - | - | - | - |
| 1777733401 | 11.11° C | 59% | 1023 hPa | - | - | - | - |
| 1777732802 | 11.11° C | 59% | 1023 hPa | - | - | - | - |
| 1777732201 | 11.67° C | 59% | 1023 hPa | - | - | - | - |
| 1777731602 | 12.22° C | 52% | 1023 hPa | - | - | - | - |
| 1777731002 | 11.67° C | 56% | 1023 hPa | - | - | - | - |
| 1777730402 | 11.67° C | 59% | 1023 hPa | - | - | - | - |
* Rain since midnight (hover to see other rain measurements)
** Current wind speed in m/s (hover to see current wind gust speed)